Archival Weather

Scottsdale

Scottsdale, Arizona (KSDL)

Report from: Wednesday, December 6, 2023 5:53 AM MST
Current time: Wednesday, April 24, 2024 11:17 AM MST

Current weather – Weather history – Daily summaries
Weather forecast

Temperature13.3°C (55.9°F)
Dew point0.6°C (33.1°F)
Winds 4 kts (2.1 m/s, 4.6 mph) West-Northwest (290°)
Visibility10 mi. (16.1 km)
Clouds Sky clear
Altimeter30.11 in.Hg (1020 mB)
Relative humidity42 %
Density altitude-271 ft. (-82 m)
Sea-level pressure101.8 kPa (1018 mB, 30.07 in.Hg)
Remarks Automated weather observing station with precipitation discriminator
Flight conditions Visual Meteorological Conditions
Raw dataKSDL 061253Z 29004KT 10SM CLR 13/01 A3011 RMK AO2 SLP182 T01330006
An error has occurred. This application may no longer respond until reloaded. Reload 🗙